AAL2600 KBOS-KDFW
Flight info
| Callsign | AAL2600 |
|---|---|
| Flight time | N/A |
| Altitude | 28000 |
| Route | BLZZR6 BLZZR BAF Q406 BWZ J6 HVQ Q68 SOPIE/N0449F300 Q68 LITTR FEWWW SEEVR4 |
| Aircraft | A321/M-SDE3FGHIRWY/LB1 |
Departure
| Time | 2026-05-08 03:54 |
|---|---|
| Airport | Boston Logan International Airport (KBOS) |
Arrival
| Time | N/A |
|---|---|
| Airport | Dallas Fort Worth International Airport (KDFW) |
| Time | Latitude | Longitude | Altitude | Speed | Heading |
|---|---|---|---|---|---|
| 2026-05-08 03:11 | 42.36223 | -71.02030 | 26 ft | 0 kts | 161° |
| 2026-05-08 03:33 | 42.36227 | -71.02032 | 30 ft | 3 kts | 161° |
| 2026-05-08 03:34 | 42.36253 | -71.02044 | 30 ft | 4 kts | 161° |
| 2026-05-08 03:34 | 42.36273 | -71.02054 | 27 ft | 4 kts | 168° |
| 2026-05-08 03:34 | 42.36297 | -71.02052 | 30 ft | 3 kts | 207° |
| 2026-05-08 03:34 | 42.36317 | -71.02037 | 31 ft | 4 kts | 207° |
| 2026-05-08 03:35 | 42.36326 | -71.02031 | 25 ft | 0 kts | 207° |
| 2026-05-08 03:44 | 42.36315 | -71.02039 | 27 ft | 6 kts | 210° |
| 2026-05-08 03:44 | 42.36287 | -71.02080 | 28 ft | 5 kts | 236° |
| 2026-05-08 03:44 | 42.36273 | -71.02120 | 29 ft | 4 kts | 248° |
| 2026-05-08 03:44 | 42.36265 | -71.02151 | 25 ft | 3 kts | 250° |
| 2026-05-08 03:45 | 42.36259 | -71.02172 | 27 ft | 2 kts | 250° |
| 2026-05-08 03:45 | 42.36244 | -71.02225 | 25 ft | 13 kts | 245° |
| 2026-05-08 03:45 | 42.36144 | -71.02281 | 29 ft | 17 kts | 176° |
| 2026-05-08 03:45 | 42.36068 | -71.02201 | 28 ft | 14 kts | 119° |
| 2026-05-08 03:46 | 42.36031 | -71.02093 | 29 ft | 12 kts | 112° |
| 2026-05-08 03:46 | 42.35998 | -71.01996 | 30 ft | 10 kts | 116° |
| 2026-05-08 03:46 | 42.35968 | -71.01915 | 25 ft | 9 kts | 118° |
| 2026-05-08 03:46 | 42.35940 | -71.01851 | 29 ft | 7 kts | 121° |
| 2026-05-08 03:47 | 42.35920 | -71.01796 | 25 ft | 7 kts | 111° |
| 2026-05-08 03:47 | 42.35900 | -71.01687 | 27 ft | 11 kts | 102° |
| 2026-05-08 03:47 | 42.35889 | -71.01596 | 28 ft | 9 kts | 99° |
| 2026-05-08 03:47 | 42.35880 | -71.01520 | 27 ft | 7 kts | 99° |
| 2026-05-08 03:48 | 42.35873 | -71.01455 | 27 ft | 8 kts | 99° |
| 2026-05-08 03:48 | 42.35859 | -71.01341 | 27 ft | 14 kts | 99° |
| 2026-05-08 03:48 | 42.35845 | -71.01217 | 29 ft | 13 kts | 99° |
| 2026-05-08 03:48 | 42.35834 | -71.01107 | 29 ft | 11 kts | 92° |
| 2026-05-08 03:49 | 42.35855 | -71.01018 | 29 ft | 9 kts | 56° |
| 2026-05-08 03:49 | 42.35905 | -71.00939 | 29 ft | 16 kts | 49° |
| 2026-05-08 03:49 | 42.35981 | -71.00784 | 27 ft | 19 kts | 89° |
| 2026-05-08 03:49 | 42.35926 | -71.00638 | 25 ft | 17 kts | 115° |
| 2026-05-08 03:50 | 42.35891 | -71.00492 | 29 ft | 16 kts | 107° |
| 2026-05-08 03:50 | 42.35880 | -71.00357 | 27 ft | 14 kts | 81° |
| 2026-05-08 03:50 | 42.35901 | -71.00239 | 27 ft | 12 kts | 74° |
| 2026-05-08 03:50 | 42.35922 | -71.00135 | 28 ft | 11 kts | 74° |
| 2026-05-08 03:51 | 42.35926 | -71.00048 | 27 ft | 8 kts | 123° |
| 2026-05-08 03:51 | 42.35879 | -70.99981 | 27 ft | 12 kts | 136° |
| 2026-05-08 03:51 | 42.35802 | -70.99883 | 29 ft | 18 kts | 136° |
| 2026-05-08 03:51 | 42.35697 | -70.99749 | 29 ft | 24 kts | 136° |
| 2026-05-08 03:52 | 42.35571 | -70.99574 | 29 ft | 27 kts | 143° |
| 2026-05-08 03:52 | 42.35495 | -70.99484 | 30 ft | 13 kts | 124° |
| 2026-05-08 03:52 | 42.35495 | -70.99378 | 27 ft | 11 kts | 79° |
| 2026-05-08 03:52 | 42.35528 | -70.99302 | 25 ft | 8 kts | 27° |
| 2026-05-08 03:53 | 42.35594 | -70.99341 | 25 ft | 25 kts | 319° |
| 2026-05-08 03:53 | 42.35891 | -70.99760 | 31 ft | 95 kts | 314° |
| 2026-05-08 03:53 | 42.36493 | -71.00583 | 27 ft | 148 kts | 314° |
| 2026-05-08 03:53 | 42.37295 | -71.01688 | 266 ft | 172 kts | 313° |
| 2026-05-08 03:54 | 42.38147 | -71.02838 | 918 ft | 172 kts | 309° |
| 2026-05-08 03:54 | 42.38796 | -71.04161 | 1583 ft | 170 kts | 300° |
| 2026-05-08 03:54 | 42.39415 | -71.05577 | 2052 ft | 183 kts | 299° |
| 2026-05-08 03:54 | 42.40096 | -71.07150 | 2283 ft | 205 kts | 300° |